• Join FlightAware (Why Join?)
  • Login
  • US Flag 
08:14PM EDT


 

Airport Tracker/Info


-or-


 

Live Flight TrackerFlight Track Log ✈ WAV757 ✈ 05-Jun-2013 ✈ PATA / TAL - PAFA / FAI

Flight Track Log - Related Links

Times and Time Zones

All times are in EDT time to prevent confusion due to time zone crossing. See the WAV757 flight status page for this flight to view local times or setup timezone preferences in your user account.

Time Position Orientation Groundspeed Altitude Reporting Facility
EDT Latitude Longitude Course Direction KTS MPH feet Rate Location/Type
01:49PM 65.1500 -151.8000 115° Southeast 160 184 3,500  Level Anchorage Center
01:50PM 65.1333 -151.7167 115° Southeast 150 173 4,300 840 Climbing Anchorage Center
01:51PM 65.1333 -151.6167 90° East 150 173 5,200 840 Climbing Anchorage Center
01:52PM 65.1167 -151.5333 115° Southeast 140 161 6,000 660 Climbing Anchorage Center
01:53PM 65.1167 -151.4333 90° East 150 173 6,600 480 Climbing Anchorage Center
01:54PM 65.1000 -151.3333 112° Southeast 180 207 7,000 180 Climbing Anchorage Center
01:55PM 65.1000 -151.2167 90° East 180 207 7,000  Level Anchorage Center
01:56PM 65.0833 -151.0833 106° East 190 219 7,000  Level Anchorage Center
01:57PM 65.0833 -150.9667 90° East 190 219 7,000  Level Anchorage Center
01:58PM 65.0667 -150.8500 109° East 180 207 7,000  Level Anchorage Center
01:59PM 65.0667 -150.7167 90° East 180 207 7,000  Level Anchorage Center
02:00PM 65.0500 -150.6000 109° East 180 207 7,000  Level Anchorage Center
02:01PM 65.0500 -150.4833 90° East 180 207 7,000  Level Anchorage Center
02:02PM 65.0333 -150.3667 109° East 180 207 7,000  Level Anchorage Center
02:03PM 65.0333 -150.2500 90° East 180 207 7,000  Level Anchorage Center
02:04PM 65.0167 -150.1333 109° East 180 207 7,000  Level Anchorage Center
02:05PM 65.0000 -150.0167 109° East 180 207 7,000  Level Anchorage Center
02:06PM 65.0000 -149.9000 90° East 190 219 7,000  Level Anchorage Center
02:07PM 64.9833 -149.7833 109° East 180 207 7,000  Level Anchorage Center
02:08PM 64.9833 -149.6667 90° East 180 207 7,000  Level Anchorage Center
02:09PM 64.9667 -149.5500 109° East 170 196 7,000  Level Anchorage Center
02:10PM 64.9500 -149.4333 109° East 180 207 7,000  Level Anchorage Center
02:12PM 64.9415 -149.3256 101° East  Level FlightAware Approximate
02:19PM 64.8749 -148.5907 108° East  Level FlightAware Approximate
02:20PM 64.8627 -148.4873 101° East  Level FlightAware Approximate
02:21PM 64.8535 -148.3820 102° East  Level FlightAware Approximate
02:22PM 64.8443 -148.2768 102° East  Level FlightAware Approximate
02:23PM 64.8350 -148.1717 102° East  Level FlightAware Approximate
02:24PM 64.8257 -148.0666 102° East  Level FlightAware Approximate
02:25PM 64.8160 -147.9618 109° East  Level FlightAware Approximate
02:26PM 64.8015 -147.8601 109° East  Level FlightAware Approximate
02:27PM 64.8000 -147.8500 109° East  Level FlightAware Approximate
02:28PM 64.8151 -147.8564 109° East  Level Estimated
02:29PM 64.8151 -147.8564 109° East  Level Estimated
02:30PM 64.8151 -147.8564 109° East  Level Estimated
02:31PM 64.8151 -147.8564 109° East  Level Estimated
02:32PM 64.8151 -147.8564 109° East  Level Estimated
02:33PM 64.8151 -147.8564 109° East  Level Estimated
02:34PM 64.8151 -147.8564 109° East  Level Estimated
02:35PM 64.8151 -147.8564 109° East  Level Estimated
02:36PM 64.8151 -147.8564 109° East  Level Estimated
02:37PM 64.8151 -147.8564 109° East  Level Estimated
02:38PM 64.8151 -147.8564 109° East  Level Estimated
02:39PM 64.8151 -147.8564 109° East  Level Estimated
02:40PM 64.8151 -147.8564 109° East  Level Estimated
02:41PM 64.8151 -147.8564 109° East  Level Estimated
02:42PM 64.8151 -147.8564 109° East  Level Estimated